createdAt,value
2022-09-17T00:01:06.099Z,17.38
2022-09-17T00:03:35.983Z,15.65
2022-09-17T00:06:05.563Z,18.95
2022-09-17T00:08:32.980Z,16.40
2022-09-17T00:11:17.154Z,14.43
2022-09-17T00:13:45.020Z,15.63
2022-09-17T00:16:12.939Z,14.52
2022-09-17T00:18:43.305Z,15.23
2022-09-17T00:21:17.402Z,15.82
2022-09-17T00:23:44.671Z,16.45
2022-09-17T00:26:11.713Z,16.85
2022-09-17T00:28:38.558Z,14.95
2022-09-17T00:31:20.768Z,16.05
2022-09-17T00:33:48.067Z,16.35
2022-09-17T00:36:14.781Z,17.42
2022-09-17T00:38:41.618Z,14.02
2022-09-17T00:41:08.749Z,14.73
2022-09-17T00:43:47.548Z,16.33
2022-09-17T00:46:25.760Z,17.92
2022-09-17T00:48:56.383Z,14.82
2022-09-17T00:51:36.101Z,17.83
2022-09-17T00:54:05.327Z,15.13
2022-09-17T00:56:34.138Z,12.90
2022-09-17T00:59:02.711Z,17.42
2022-09-17T01:01:30.502Z,15.40
2022-09-17T01:03:57.191Z,16.45
2022-09-17T01:06:29.675Z,14.32
2022-09-17T01:09:05.013Z,22.73
2022-09-17T01:12:19.870Z,14.65
2022-09-17T01:15:17.252Z,19.33
2022-09-17T01:18:19.042Z,15.02
2022-09-17T01:21:24.449Z,20.77
2022-09-17T01:24:17.283Z,15.75
2022-09-17T01:27:14.534Z,17.42
2022-09-17T01:30:15.658Z,16.88
2022-09-17T01:32:45.939Z,16.48
2022-09-17T01:35:21.401Z,18.25
2022-09-17T01:38:13.689Z,17.83
2022-09-17T01:41:12.465Z,18.83
2022-09-17T01:43:54.950Z,16.13
2022-09-17T01:46:30.817Z,17.90
2022-09-17T01:49:01.347Z,10.82
2022-09-17T01:51:35.914Z,14.27
2022-09-17T01:54:20.614Z,15.40
2022-09-17T01:56:58.109Z,16.85
2022-09-17T01:59:34.122Z,9.05
2022-09-17T02:02:12.012Z,18.30
2022-09-17T02:04:45.723Z,14.63
2022-09-17T02:07:22.708Z,13.15
2022-09-17T02:10:00.193Z,18.73
2022-09-17T02:12:42.792Z,12.30
2022-09-17T02:15:14.608Z,8.05
2022-09-17T02:17:56.273Z,11.05
2022-09-17T02:20:39.650Z,10.13
2022-09-17T02:23:13.815Z,14.05
2022-09-17T02:25:50.279Z,10.80
2022-09-17T02:28:50.450Z,10.15
2022-09-17T02:31:17.167Z,9.30
2022-09-17T02:33:48.865Z,12.25
2022-09-17T02:36:15.461Z,15.50
2022-09-17T02:38:45.079Z,8.52
2022-09-17T02:41:11.965Z,9.23
2022-09-17T02:44:07.263Z,11.82
2022-09-17T02:46:47.426Z,9.38
2022-09-17T02:49:26.016Z,8.30
2022-09-17T02:52:18.063Z,11.95
2022-09-17T02:54:54.727Z,13.52
2022-09-17T02:57:38.021Z,8.38
2022-09-17T03:00:17.411Z,8.93
2022-09-17T03:03:09.658Z,9.05
2022-09-17T03:05:39.086Z,11.30
2022-09-17T03:08:09.566Z,7.63
2022-09-17T03:10:36.152Z,8.20
2022-09-17T03:13:03.124Z,6.85
2022-09-17T03:15:29.891Z,11.45
2022-09-17T03:17:56.556Z,8.88
2022-09-17T03:20:23.540Z,13.20
2022-09-17T03:22:51.825Z,9.02
2022-09-17T03:25:18.601Z,9.77
2022-09-17T03:27:45.195Z,11.63
2022-09-17T03:30:11.995Z,9.65
2022-09-17T03:32:38.579Z,10.77
2022-09-17T03:35:05.441Z,13.98
2022-09-17T03:37:33.218Z,12.30
2022-09-17T03:39:59.959Z,19.15
2022-09-17T03:42:26.763Z,13.68
2022-09-17T03:44:53.424Z,11.80
2022-09-17T03:47:20.031Z,12.15
2022-09-17T03:49:46.706Z,13.65
2022-09-17T03:52:13.282Z,10.00
2022-09-17T03:54:39.995Z,8.75
2022-09-17T03:57:06.564Z,14.48
2022-09-17T03:59:33.201Z,11.38
2022-09-17T04:01:59.893Z,12.30
2022-09-17T04:04:26.605Z,10.43
2022-09-17T04:06:54.547Z,14.25
2022-09-17T04:09:21.141Z,12.95
2022-09-17T04:11:47.774Z,13.60
2022-09-17T04:14:14.455Z,13.10
2022-09-17T04:16:41.051Z,14.32
2022-09-17T04:19:07.756Z,12.57
2022-09-17T04:21:34.335Z,9.18
2022-09-17T04:24:01.040Z,7.43
2022-09-17T04:26:27.696Z,11.80
2022-09-17T04:28:54.280Z,14.43
2022-09-17T04:31:22.624Z,12.32
2022-09-17T04:33:49.295Z,9.55
2022-09-17T04:36:15.943Z,12.52
2022-09-17T04:38:42.660Z,10.07
2022-09-17T04:41:09.308Z,12.80
2022-09-17T04:43:35.936Z,9.70
2022-09-17T04:46:02.547Z,6.70
2022-09-17T04:48:29.108Z,10.40
2022-09-17T04:50:55.702Z,11.38
2022-09-17T04:56:17.792Z,7.95
2022-09-17T04:58:44.434Z,8.52
2022-09-17T05:01:11.082Z,7.13
2022-09-17T05:03:37.679Z,9.13
2022-09-17T05:06:04.428Z,7.53
2022-09-17T05:08:31.082Z,6.45
2022-09-17T05:10:57.771Z,5.82
2022-09-17T05:13:24.411Z,8.85
2022-09-17T05:15:51.116Z,7.30
2022-09-17T05:18:17.999Z,8.05
2022-09-17T05:20:44.578Z,10.90
2022-09-17T05:23:11.127Z,13.02
2022-09-17T05:25:37.630Z,6.95
2022-09-17T05:28:04.214Z,7.63
2022-09-17T05:30:30.966Z,10.02
2022-09-17T05:33:06.887Z,8.57
2022-09-17T05:35:35.702Z,15.55
2022-09-17T05:38:04.636Z,10.48
2022-09-17T05:40:32.774Z,10.02
2022-09-17T05:43:01.171Z,15.30
2022-09-17T05:45:28.380Z,11.20
2022-09-17T05:47:59.204Z,10.90
2022-09-17T05:50:27.022Z,6.57
2022-09-17T05:52:54.745Z,12.77
2022-09-17T05:55:23.652Z,10.98
2022-09-17T05:57:51.260Z,8.90
2022-09-17T06:00:18.780Z,10.93
2022-09-17T06:02:45.506Z,14.45
2022-09-17T06:05:12.121Z,10.68
2022-09-17T06:07:39.238Z,9.32
2022-09-17T06:10:08.166Z,10.25
2022-09-17T06:12:35.552Z,14.05
2022-09-17T06:15:03.804Z,12.88
2022-09-17T06:17:34.396Z,10.35
2022-09-17T06:20:01.366Z,12.50
2022-09-17T06:22:28.168Z,17.05
2022-09-17T06:24:54.686Z,10.27
2022-09-17T06:27:21.261Z,12.18
2022-09-17T06:29:47.776Z,12.90
2022-09-17T06:32:17.065Z,13.50
2022-09-17T06:34:43.908Z,10.77
2022-09-17T06:37:10.428Z,9.93
2022-09-17T06:39:37.404Z,9.38
2022-09-17T06:42:04.137Z,10.63
2022-09-17T06:44:30.647Z,14.40
2022-09-17T06:46:57.224Z,14.45
2022-09-17T06:49:24.340Z,10.98
2022-09-17T06:51:50.920Z,12.55
2022-09-17T06:54:17.587Z,11.93
2022-09-17T06:56:46.774Z,11.27
2022-09-17T06:59:13.851Z,8.77
2022-09-17T07:01:40.415Z,6.82
2022-09-17T07:04:07.004Z,9.57
2022-09-17T07:06:33.519Z,8.20
2022-09-17T07:09:00.210Z,12.52
2022-09-17T07:11:26.745Z,9.27
2022-09-17T07:13:53.320Z,6.68
2022-09-17T07:16:20.260Z,14.13
2022-09-17T07:18:47.072Z,11.23
2022-09-17T07:21:13.669Z,9.38
2022-09-17T07:23:40.589Z,6.70
2022-09-17T07:26:12.869Z,10.20
2022-09-17T07:28:40.640Z,10.43
2022-09-17T07:31:11.281Z,9.73
2022-09-17T07:33:40.999Z,9.02
2022-09-17T07:36:10.810Z,11.77
2022-09-17T07:38:38.714Z,7.25
2022-09-17T07:41:13.930Z,9.23
2022-09-17T07:43:41.605Z,15.65
2022-09-17T07:46:13.096Z,9.57
2022-09-17T07:48:39.736Z,8.20
2022-09-17T07:51:06.692Z,9.68
2022-09-17T07:53:33.227Z,8.52
2022-09-17T07:56:00.598Z,6.40
2022-09-17T07:58:34.151Z,6.85
2022-09-17T08:01:03.120Z,9.65
2022-09-17T08:03:30.384Z,10.55
2022-09-17T08:06:08.544Z,9.70
2022-09-17T08:08:36.728Z,6.93
2022-09-17T08:11:11.828Z,10.30
2022-09-17T08:13:38.468Z,7.68
2022-09-17T08:16:13.275Z,7.32
2022-09-17T08:18:40.323Z,5.40
2022-09-17T08:21:09.689Z,4.15
2022-09-17T08:23:37.849Z,8.75
2022-09-17T08:26:07.079Z,4.57
2022-09-17T08:28:33.955Z,5.35
2022-09-17T08:31:08.774Z,5.55
2022-09-17T08:33:37.263Z,3.15
2022-09-17T08:36:04.589Z,5.25
2022-09-17T08:38:37.854Z,5.97
2022-09-17T08:41:14.581Z,5.18
2022-09-17T08:44:01.225Z,4.53
2022-09-17T08:46:31.470Z,3.13
2022-09-17T08:49:23.710Z,6.82
2022-09-17T08:52:18.096Z,4.13
2022-09-17T08:55:00.313Z,4.82
2022-09-17T08:57:42.034Z,3.15
2022-09-17T09:00:15.074Z,4.43
2022-09-17T09:03:11.679Z,6.88
2022-09-17T09:05:45.089Z,4.70
2022-09-17T09:08:33.387Z,4.10
2022-09-17T09:11:03.256Z,4.18
2022-09-17T09:13:36.758Z,5.97
2022-09-17T09:16:11.292Z,5.68
2022-09-17T09:18:40.175Z,5.00
2022-09-17T09:21:07.380Z,3.58
2022-09-17T09:23:51.706Z,1.90
2022-09-17T09:26:23.636Z,5.70
2022-09-17T09:29:18.198Z,6.95
2022-09-17T09:31:58.266Z,5.40
2022-09-17T09:34:28.203Z,6.55
2022-09-17T09:37:19.786Z,5.10
2022-09-17T09:39:49.312Z,4.25
2022-09-17T09:42:34.741Z,2.85
2022-09-17T09:45:12.483Z,4.70
2022-09-17T09:48:11.656Z,4.82
2022-09-17T09:51:14.746Z,3.53
2022-09-17T09:54:02.792Z,3.67
2022-09-17T09:59:42.295Z,4.38
2022-09-17T10:02:09.911Z,2.47
2022-09-17T10:04:36.680Z,4.75
2022-09-17T10:07:12.691Z,2.85
2022-09-17T10:09:45.968Z,4.38
2022-09-17T10:12:12.556Z,5.90
2022-09-17T10:14:41.072Z,5.43
2022-09-17T10:17:27.284Z,4.78
2022-09-17T10:20:00.168Z,2.75
2022-09-17T10:22:33.882Z,5.13
2022-09-17T10:25:07.081Z,4.82
2022-09-17T10:27:43.511Z,3.63
2022-09-17T10:30:13.592Z,4.35
2022-09-17T10:35:22.523Z,6.28
2022-09-17T10:37:53.816Z,5.53
2022-09-17T10:40:22.791Z,5.57
2022-09-17T10:43:48.802Z,3.33
2022-09-17T10:46:27.866Z,5.25
2022-09-17T10:53:23.754Z,5.55
2022-09-17T10:58:38.150Z,3.58
2022-09-17T11:01:33.072Z,6.57
2022-09-17T11:04:25.214Z,6.47
2022-09-17T11:07:03.821Z,3.92
2022-09-17T11:09:57.912Z,2.90
2022-09-17T11:16:18.810Z,4.93
2022-09-17T11:18:53.274Z,5.20
2022-09-17T11:21:28.424Z,5.95
2022-09-17T11:24:14.863Z,7.45
2022-09-17T11:26:58.006Z,4.72
2022-09-17T11:29:42.750Z,7.30
2022-09-17T11:32:38.588Z,3.88
2022-09-17T11:35:29.713Z,6.35
2022-09-17T11:38:05.043Z,4.88
2022-09-17T11:41:00.500Z,3.42
2022-09-17T11:43:30.984Z,7.13
2022-09-17T11:46:02.733Z,7.15
2022-09-17T11:48:39.147Z,5.60
2022-09-17T11:51:16.587Z,9.00
2022-09-17T11:54:05.062Z,5.22
2022-09-17T11:56:51.210Z,2.22
2022-09-17T11:59:33.493Z,7.03
2022-09-17T12:02:22.072Z,5.22
2022-09-17T12:05:02.973Z,5.40
2022-09-17T12:07:52.825Z,7.82
2022-09-17T12:10:32.857Z,7.60
2022-09-17T12:13:29.738Z,8.27
2022-09-17T12:16:08.676Z,5.82
2022-09-17T12:19:08.717Z,6.40
2022-09-17T12:21:45.095Z,6.47
2022-09-17T12:24:22.569Z,7.03
2022-09-17T12:27:17.411Z,6.05
2022-09-17T12:30:05.164Z,6.40
2022-09-17T12:32:43.400Z,9.65
2022-09-17T12:36:06.187Z,7.63
2022-09-17T12:38:51.496Z,4.82
2022-09-17T12:41:38.571Z,9.77
2022-09-17T12:44:13.132Z,9.38
2022-09-17T12:47:00.656Z,6.53
2022-09-17T12:49:45.488Z,6.18
2022-09-17T12:52:52.602Z,8.73
2022-09-17T12:55:44.209Z,12.35
2022-09-17T12:58:20.125Z,7.53
2022-09-17T13:01:02.262Z,6.35
2022-09-17T13:03:50.095Z,5.78
2022-09-17T13:06:36.971Z,6.80
2022-09-17T13:09:35.803Z,8.85
2022-09-17T13:12:25.298Z,7.43
2022-09-17T13:15:06.606Z,9.57
2022-09-17T13:18:13.321Z,9.07
2022-09-17T13:20:53.976Z,8.45
2022-09-17T13:23:42.327Z,6.32
2022-09-17T13:26:10.905Z,8.45
2022-09-17T13:28:49.205Z,5.30
2022-09-17T13:31:22.860Z,8.10
2022-09-17T13:33:50.445Z,6.65
2022-09-17T13:36:38.212Z,4.97
2022-09-17T13:39:06.738Z,7.38
2022-09-17T13:41:36.718Z,5.85
2022-09-17T13:44:08.099Z,3.97
2022-09-17T13:46:36.482Z,5.93
2022-09-17T13:49:11.351Z,6.68
2022-09-17T13:51:37.829Z,5.53
2022-09-17T13:54:09.633Z,8.98
2022-09-17T13:56:40.421Z,6.55
2022-09-17T13:59:14.656Z,7.82
2022-09-17T14:02:01.096Z,8.73
2022-09-17T14:04:41.715Z,8.82
2022-09-17T14:07:32.233Z,11.90
2022-09-17T14:10:25.877Z,10.88
2022-09-17T14:12:56.247Z,7.32
2022-09-17T14:15:41.431Z,6.70
2022-09-17T14:18:27.351Z,9.07
2022-09-17T14:21:33.725Z,7.03
2022-09-17T14:24:18.795Z,8.20
2022-09-17T14:26:57.613Z,7.88
2022-09-17T14:29:30.360Z,10.63
2022-09-17T14:31:58.133Z,6.63
2022-09-17T14:34:26.772Z,6.75
2022-09-17T14:36:55.929Z,7.88
2022-09-17T14:39:27.646Z,7.03
2022-09-17T14:41:55.681Z,7.85
2022-09-17T14:44:26.832Z,6.90
2022-09-17T14:47:01.636Z,6.63
2022-09-17T14:49:34.956Z,9.07
2022-09-17T14:52:03.078Z,8.18
2022-09-17T14:54:35.725Z,8.63
2022-09-17T14:57:27.713Z,14.88
2022-09-17T14:59:59.529Z,9.05
2022-09-17T15:02:41.189Z,6.68
2022-09-17T15:05:23.211Z,6.82
2022-09-17T15:07:50.553Z,7.63
2022-09-17T15:10:20.585Z,4.97
2022-09-17T15:12:48.671Z,8.63
2022-09-17T15:15:21.808Z,6.95
2022-09-17T15:17:50.156Z,10.57
2022-09-17T15:20:24.210Z,8.05
2022-09-17T15:22:55.249Z,5.63
2022-09-17T15:25:26.484Z,9.57
2022-09-17T15:28:06.360Z,8.23
2022-09-17T15:30:33.582Z,6.35
2022-09-17T15:33:15.213Z,7.07
2022-09-17T15:35:58.058Z,6.40
2022-09-17T15:38:38.823Z,6.32
2022-09-17T15:44:44.867Z,9.32
2022-09-17T15:47:46.561Z,11.05
2022-09-17T15:50:13.717Z,6.72
2022-09-17T15:52:48.404Z,10.73
2022-09-17T15:55:40.297Z,8.18
2022-09-17T15:58:30.035Z,9.30
2022-09-17T16:01:51.135Z,9.55
2022-09-17T16:05:32.340Z,3.92
2022-09-17T16:08:30.256Z,6.45
2022-09-17T16:10:57.248Z,8.43
2022-09-17T16:13:28.745Z,8.43
2022-09-17T16:16:18.016Z,9.60
2022-09-17T16:18:52.729Z,11.23
2022-09-17T16:21:20.384Z,8.13
2022-09-17T16:23:47.248Z,11.15
2022-09-17T16:26:28.253Z,7.22
2022-09-17T16:29:00.124Z,8.88
2022-09-17T16:31:34.994Z,7.80
2022-09-17T16:34:02.201Z,11.07
2022-09-17T16:36:32.267Z,8.52
2022-09-17T16:39:01.554Z,7.65
2022-09-17T16:41:28.596Z,9.15
2022-09-17T16:43:55.326Z,7.93
2022-09-17T16:46:40.121Z,7.03
2022-09-17T16:49:06.987Z,5.53
2022-09-17T16:51:36.291Z,5.60
2022-09-17T16:54:03.441Z,4.43
2022-09-17T16:56:30.237Z,6.53
2022-09-17T16:58:57.016Z,8.20
2022-09-17T17:01:23.942Z,5.25
2022-09-17T17:03:52.970Z,8.05
2022-09-17T17:06:24.415Z,8.75
2022-09-17T17:08:51.757Z,8.15
2022-09-17T17:11:18.720Z,8.73
2022-09-17T17:13:45.600Z,6.15
2022-09-17T17:16:15.209Z,7.78
2022-09-17T17:18:51.751Z,4.85
2022-09-17T17:21:23.068Z,7.30
2022-09-17T17:24:02.094Z,8.38
2022-09-17T17:30:12.867Z,7.35
2022-09-17T17:32:39.703Z,7.68
2022-09-17T17:38:25.874Z,14.68
2022-09-17T17:41:14.467Z,9.07
2022-09-17T17:43:42.056Z,9.82
2022-09-17T17:46:10.619Z,10.23
2022-09-17T17:48:38.971Z,6.97
2022-09-17T17:51:11.342Z,10.15
2022-09-17T17:56:23.317Z,7.57
2022-09-17T17:58:55.012Z,11.13
2022-09-17T18:01:26.861Z,10.23
2022-09-17T18:03:58.422Z,10.02
2022-09-17T18:06:25.952Z,9.95
2022-09-17T18:08:52.885Z,10.48
2022-09-17T18:11:20.956Z,8.07
2022-09-17T18:13:51.624Z,11.48
2022-09-17T18:16:18.225Z,11.85
2022-09-17T18:18:45.958Z,7.72
2022-09-17T18:21:20.805Z,6.85
2022-09-17T18:23:48.515Z,10.13
2022-09-17T18:26:18.160Z,10.30
2022-09-17T18:28:45.380Z,9.93
2022-09-17T18:31:28.620Z,9.82
2022-09-17T18:34:13.494Z,10.35
2022-09-17T18:36:41.135Z,10.43
2022-09-17T18:39:52.883Z,5.00
2022-09-17T18:41:57.703Z,7.03
2022-09-17T18:44:25.066Z,9.45
2022-09-17T18:46:51.767Z,6.63
2022-09-17T18:49:18.451Z,7.88
2022-09-17T18:51:45.287Z,7.20
2022-09-17T18:54:15.167Z,15.07
2022-09-17T18:56:42.188Z,9.20
2022-09-17T18:59:09.459Z,6.70
2022-09-17T19:01:36.284Z,10.75
2022-09-17T19:04:03.342Z,9.35
2022-09-17T19:06:31.912Z,12.05
2022-09-17T19:09:03.624Z,7.50
2022-09-17T19:11:30.389Z,13.80
2022-09-17T19:13:57.233Z,12.18
2022-09-17T19:16:24.072Z,14.77
2022-09-17T19:18:51.342Z,13.50
2022-09-17T19:21:22.748Z,8.52
2022-09-17T19:23:51.851Z,11.65
2022-09-17T19:26:26.817Z,10.07
2022-09-17T19:28:54.864Z,8.50
2022-09-17T19:31:21.755Z,8.77
2022-09-17T19:33:48.552Z,10.20
2022-09-17T19:36:17.369Z,8.02
2022-09-17T19:38:44.302Z,5.80
2022-09-17T19:41:13.221Z,8.77
2022-09-17T19:43:40.646Z,7.72
2022-09-17T19:46:11.778Z,8.05
2022-09-17T19:48:44.652Z,9.73
2022-09-17T19:51:11.441Z,7.47
2022-09-17T19:53:38.194Z,10.23
2022-09-17T19:56:05.163Z,9.65
2022-09-17T19:58:31.729Z,7.20
2022-09-17T20:00:59.268Z,9.95
2022-09-17T20:03:26.778Z,6.22
2022-09-17T20:06:05.359Z,7.40
2022-09-17T20:08:32.750Z,7.55
2022-09-17T20:11:07.387Z,10.43
2022-09-17T20:13:34.701Z,8.32
2022-09-17T20:16:18.863Z,9.70
2022-09-17T20:18:46.116Z,8.25
2022-09-17T20:21:16.308Z,10.80
2022-09-17T20:23:43.669Z,10.38
2022-09-17T20:26:14.485Z,7.43
2022-09-17T20:28:41.101Z,8.50
2022-09-17T20:31:13.415Z,11.50
2022-09-17T20:33:40.807Z,9.23
2022-09-17T20:36:12.251Z,8.60
2022-09-17T20:41:27.426Z,12.05
2022-09-17T20:43:54.396Z,8.27
2022-09-17T20:46:27.544Z,13.43
2022-09-17T20:48:56.491Z,8.77
2022-09-17T20:51:25.545Z,9.23
2022-09-17T20:53:52.274Z,10.20
2022-09-17T20:56:21.256Z,11.93
2022-09-17T20:58:54.457Z,13.57
2022-09-17T21:01:23.601Z,8.52
2022-09-17T21:03:52.831Z,8.90
2022-09-17T21:06:54.263Z,7.60
2022-09-17T21:09:21.041Z,7.90
2022-09-17T21:11:51.039Z,11.27
2022-09-17T21:14:18.463Z,6.60
2022-09-17T21:16:46.575Z,11.52
2022-09-17T21:19:15.940Z,7.75
2022-09-17T21:21:42.593Z,8.57
2022-09-17T21:24:10.156Z,8.65
2022-09-17T21:26:37.174Z,11.48
2022-09-17T21:29:04.673Z,7.03
2022-09-17T21:31:34.182Z,10.68
2022-09-17T21:34:03.492Z,11.05
2022-09-17T21:36:32.827Z,9.70
2022-09-17T21:39:02.473Z,5.60
2022-09-17T21:41:29.721Z,9.05
2022-09-17T21:43:56.493Z,13.13
2022-09-17T21:46:25.551Z,11.00
2022-09-17T21:48:55.148Z,6.55
2022-09-17T21:51:30.272Z,8.40
2022-09-17T21:53:59.422Z,8.25
2022-09-17T21:56:26.300Z,7.47
2022-09-17T21:58:56.776Z,4.55
2022-09-17T22:01:26.964Z,10.57
2022-09-17T22:03:56.308Z,7.45
2022-09-17T22:06:25.879Z,12.70
2022-09-17T22:08:52.877Z,8.93
2022-09-17T22:11:31.774Z,5.63
2022-09-17T22:14:04.846Z,9.57
2022-09-17T22:16:33.243Z,7.07
2022-09-17T22:18:59.960Z,11.52
2022-09-17T22:21:28.347Z,10.15
2022-09-17T22:23:56.859Z,9.40
2022-09-17T22:26:25.069Z,5.65
2022-09-17T22:28:52.429Z,9.70
2022-09-17T22:31:19.862Z,4.90
2022-09-17T22:33:48.059Z,22.13
2022-09-17T22:36:17.869Z,8.38
2022-09-17T22:38:56.196Z,7.28
2022-09-17T22:41:24.372Z,9.48
2022-09-17T22:43:55.684Z,8.70
2022-09-17T22:46:25.445Z,10.77
2022-09-17T22:48:52.337Z,5.72
2022-09-17T22:51:19.198Z,7.95
2022-09-17T22:53:46.207Z,6.18
2022-09-17T22:56:18.607Z,5.43
2022-09-17T22:58:45.991Z,4.32
2022-09-17T23:01:15.657Z,7.82
2022-09-17T23:03:43.215Z,7.88
2022-09-17T23:06:13.113Z,7.65
2022-09-17T23:08:40.161Z,8.85
2022-09-17T23:11:10.043Z,9.10
2022-09-17T23:13:36.724Z,6.93
2022-09-17T23:16:08.465Z,8.05
2022-09-17T23:18:36.574Z,5.30
2022-09-17T23:21:09.820Z,4.97
2022-09-17T23:23:37.242Z,8.02
2022-09-17T23:26:09.290Z,7.40
2022-09-17T23:28:36.695Z,7.43
2022-09-17T23:31:08.211Z,10.93
2022-09-17T23:33:35.361Z,8.38
2022-09-17T23:36:06.534Z,6.93
2022-09-17T23:38:33.329Z,5.85
2022-09-17T23:41:27.239Z,10.93
2022-09-17T23:43:55.986Z,9.20
2022-09-17T23:46:24.812Z,9.55
2022-09-17T23:48:53.541Z,7.75
2022-09-17T23:51:21.976Z,8.40
2022-09-17T23:53:48.959Z,7.53
2022-09-17T23:56:18.758Z,8.23
2022-09-17T23:58:45.717Z,7.00
